sensor_id;sensor_type;location;lat;lon;timestamp;pressure;altitude;pressure_sealevel;temperature;humidity
69780;BME280;57052;55.602;38.096;2023-07-28T00:02:05;98792.84;;;23.85;69.82
69780;BME280;57052;55.602;38.096;2023-07-28T00:04:33;98779.03;;;23.82;69.74
69780;BME280;57052;55.602;38.096;2023-07-28T00:06:59;98773.13;;;23.83;69.82
69780;BME280;57052;55.602;38.096;2023-07-28T00:09:25;98771.56;;;23.82;70.01
69780;BME280;57052;55.602;38.096;2023-07-28T00:11:50;98765.59;;;23.80;70.14
69780;BME280;57052;55.602;38.096;2023-07-28T00:14:16;98771.94;;;23.77;70.03
69780;BME280;57052;55.602;38.096;2023-07-28T00:16:42;98787.72;;;23.77;69.78
69780;BME280;57052;55.602;38.096;2023-07-28T00:19:07;98798.78;;;23.77;69.68
69780;BME280;57052;55.602;38.096;2023-07-28T00:21:33;98794.81;;;23.74;70.02
69780;BME280;57052;55.602;38.096;2023-07-28T00:23:59;98786.91;;;23.69;69.92
69780;BME280;57052;55.602;38.096;2023-07-28T00:26:25;98803.88;;;23.71;70.00
69780;BME280;57052;55.602;38.096;2023-07-28T00:28:50;98812.19;;;23.71;69.76
69780;BME280;57052;55.602;38.096;2023-07-28T00:31:16;98808.22;;;23.69;70.04
69780;BME280;57052;55.602;38.096;2023-07-28T00:33:42;98797.56;;;23.67;70.25
69780;BME280;57052;55.602;38.096;2023-07-28T00:36:07;98799.53;;;23.67;69.98
69780;BME280;57052;55.602;38.096;2023-07-28T00:38:33;98789.66;;;23.62;70.18
69780;BME280;57052;55.602;38.096;2023-07-28T00:40:59;98791.25;;;23.67;70.18
69780;BME280;57052;55.602;38.096;2023-07-28T00:43:25;98786.53;;;23.67;70.03
69780;BME280;57052;55.602;38.096;2023-07-28T00:45:50;98795.56;;;23.68;70.02
69780;BME280;57052;55.602;38.096;2023-07-28T00:48:17;98773.88;;;23.59;69.98
69780;BME280;57052;55.602;38.096;2023-07-28T00:50:47;98792.03;;;23.64;70.63
69780;BME280;57052;55.602;38.096;2023-07-28T00:53:14;98792.03;;;23.64;70.31
69780;BME280;57052;55.602;38.096;2023-07-28T00:55:41;98812.97;;;23.65;70.10
69780;BME280;57052;55.602;38.096;2023-07-28T00:58:08;98785.28;;;23.50;70.54
69780;BME280;57052;55.602;38.096;2023-07-28T01:00:34;98799.53;;;23.63;70.47
69780;BME280;57052;55.602;38.096;2023-07-28T01:02:59;98793.19;;;23.63;70.45
69780;BME280;57052;55.602;38.096;2023-07-28T01:05:38;98776.19;;;23.50;70.94
69780;BME280;57052;55.602;38.096;2023-07-28T01:08:25;98778.97;;;23.46;70.90
69780;BME280;57052;55.602;38.096;2023-07-28T01:10:52;98784.91;;;23.55;70.38
69780;BME280;57052;55.602;38.096;2023-07-28T01:13:18;98788.47;;;23.59;70.53
69780;BME280;57052;55.602;38.096;2023-07-28T01:15:44;98792.41;;;23.58;70.48
69780;BME280;57052;55.602;38.096;2023-07-28T01:18:10;98782.53;;;23.57;70.55
69780;BME280;57052;55.602;38.096;2023-07-28T01:20:37;98780.16;;;23.56;70.53
69780;BME280;57052;55.602;38.096;2023-07-28T01:23:20;98778.19;;;23.49;70.65
69780;BME280;57052;55.602;38.096;2023-07-28T01:28:31;98779.75;;;23.47;70.38
69780;BME280;57052;55.602;38.096;2023-07-28T01:30:58;98781.72;;;23.50;70.65
69780;BME280;57052;55.602;38.096;2023-07-28T01:33:23;98776.59;;;23.48;70.85
69780;BME280;57052;55.602;38.096;2023-07-28T01:35:49;98779.75;;;23.47;70.65
69780;BME280;57052;55.602;38.096;2023-07-28T01:38:15;98778.97;;;23.46;70.61
69780;BME280;57052;55.602;38.096;2023-07-28T01:40:41;98776.56;;;23.45;70.42
69780;BME280;57052;55.602;38.096;2023-07-28T01:43:07;98779.34;;;23.45;70.36
69780;BME280;57052;55.602;38.096;2023-07-28T01:45:33;98771.44;;;23.43;70.57
69780;BME280;57052;55.602;38.096;2023-07-28T01:47:58;98761.97;;;23.41;70.44
69780;BME280;57052;55.602;38.096;2023-07-28T01:50:24;98767.53;;;23.44;70.53
69780;BME280;57052;55.602;38.096;2023-07-28T01:52:50;98773.03;;;23.44;70.75
69780;BME280;57052;55.602;38.096;2023-07-28T01:55:15;98758.44;;;23.37;70.63
69780;BME280;57052;55.602;38.096;2023-07-28T01:57:50;98772.63;;;23.39;70.56
69780;BME280;57052;55.602;38.096;2023-07-28T02:00:16;98754.81;;;23.33;70.62
69780;BME280;57052;55.602;38.096;2023-07-28T02:02:42;98768.66;;;23.40;70.64
69780;BME280;57052;55.602;38.096;2023-07-28T02:05:08;98780.13;;;23.38;70.47
69780;BME280;57052;55.602;38.096;2023-07-28T02:07:34;98779.72;;;23.36;70.28
69780;BME280;57052;55.602;38.096;2023-07-28T02:09:59;98783.63;;;23.35;70.02
69780;BME280;57052;55.602;38.096;2023-07-28T02:12:25;98777.31;;;23.35;70.45
69780;BME280;57052;55.602;38.096;2023-07-28T02:14:51;98767.44;;;23.34;70.43
69780;BME280;57052;55.602;38.096;2023-07-28T02:17:17;98744.94;;;23.28;70.33
69780;BME280;57052;55.602;38.096;2023-07-28T02:20:02;98764.69;;;23.34;70.31
69780;BME280;57052;55.602;38.096;2023-07-28T02:22:31;98766.25;;;23.35;70.30
69780;BME280;57052;55.602;38.096;2023-07-28T02:24:57;98768.25;;;23.34;70.24
69780;BME280;57052;55.602;38.096;2023-07-28T02:27:32;98771.78;;;23.35;70.00
69780;BME280;57052;55.602;38.096;2023-07-28T02:29:58;98779.66;;;23.33;70.02
69780;BME280;57052;55.602;38.096;2023-07-28T02:32:23;98785.97;;;23.33;70.31
69780;BME280;57052;55.602;38.096;2023-07-28T02:34:49;98801.75;;;23.33;70.23
69780;BME280;57052;55.602;38.096;2023-07-28T02:37:15;98789.16;;;23.32;70.10
69780;BME280;57052;55.602;38.096;2023-07-28T02:39:41;98802.94;;;23.32;70.01
69780;BME280;57052;55.602;38.096;2023-07-28T02:42:07;98796.25;;;23.29;69.78
69780;BME280;57052;55.602;38.096;2023-07-28T02:44:33;98795.44;;;23.32;69.98
69780;BME280;57052;55.602;38.096;2023-07-28T02:46:58;98802.16;;;23.31;70.08
69780;BME280;57052;55.602;38.096;2023-07-28T02:49:24;98795.84;;;23.31;69.85
69780;BME280;57052;55.602;38.096;2023-07-28T02:51:49;98789.53;;;23.30;69.50
69780;BME280;57052;55.602;38.096;2023-07-28T02:54:15;98802.16;;;23.31;69.78
69780;BME280;57052;55.602;38.096;2023-07-28T02:56:41;98800.97;;;23.29;69.83
69780;BME280;57052;55.602;38.096;2023-07-28T02:59:06;98795.81;;;23.27;69.54
69780;BME280;57052;55.602;38.096;2023-07-28T03:01:32;98807.28;;;23.33;69.24
69780;BME280;57052;55.602;38.096;2023-07-28T03:04:02;98796.22;;;23.33;69.21
69780;BME280;57052;55.602;38.096;2023-07-28T03:06:28;98790.34;;;23.34;69.18
69780;BME280;57052;55.602;38.096;2023-07-28T03:08:54;98789.97;;;23.36;69.13
69780;BME280;57052;55.602;38.096;2023-07-28T03:11:20;98801.41;;;23.38;69.23
69780;BME280;57052;55.602;38.096;2023-07-28T03:13:45;98788.34;;;23.35;69.30
69780;BME280;57052;55.602;38.096;2023-07-28T03:16:11;98806.56;;;23.39;68.79
69780;BME280;57052;55.602;38.096;2023-07-28T03:18:37;98815.22;;;23.38;68.91
69780;BME280;57052;55.602;38.096;2023-07-28T03:21:03;98812.81;;;23.29;68.99
69780;BME280;57052;55.602;38.096;2023-07-28T03:23:29;98825.81;;;23.32;68.72
69780;BME280;57052;55.602;38.096;2023-07-28T03:25:54;98823.84;;;23.33;68.97
69780;BME280;57052;55.602;38.096;2023-07-28T03:28:20;98831.75;;;23.34;68.92
69780;BME280;57052;55.602;38.096;2023-07-28T03:30:46;98835.75;;;23.37;68.89
69780;BME280;57052;55.602;38.096;2023-07-28T03:33:11;98830.63;;;23.39;68.51
69780;BME280;57052;55.602;38.096;2023-07-28T03:35:37;98833.38;;;23.39;68.76
69780;BME280;57052;55.602;38.096;2023-07-28T03:38:03;98832.22;;;23.43;68.62
69780;BME280;57052;55.602;38.096;2023-07-28T03:40:28;98849.94;;;23.42;68.74
69780;BME280;57052;55.602;38.096;2023-07-28T03:42:54;98885.06;;;23.38;68.97
69780;BME280;57052;55.602;38.096;2023-07-28T03:45:20;98930.81;;;23.36;68.92
69780;BME280;57052;55.602;38.096;2023-07-28T03:47:46;98975.38;;;23.34;69.17
69780;BME280;57052;55.602;38.096;2023-07-28T03:50:12;98978.81;;;23.21;69.16
69780;BME280;57052;55.602;38.096;2023-07-28T03:52:37;98998.94;;;23.25;69.29
69780;BME280;57052;55.602;38.096;2023-07-28T03:55:03;99002.09;;;23.20;69.62
69780;BME280;57052;55.602;38.096;2023-07-28T03:57:30;99019.03;;;23.18;69.66
69780;BME280;57052;55.602;38.096;2023-07-28T03:59:55;98993.81;;;23.20;70.20
69780;BME280;57052;55.602;38.096;2023-07-28T04:02:21;98983.13;;;23.18;70.28
69780;BME280;57052;55.602;38.096;2023-07-28T04:04:53;98927.84;;;23.08;70.88
69780;BME280;57052;55.602;38.096;2023-07-28T04:07:19;98897.94;;;23.17;70.39
69780;BME280;57052;55.602;38.096;2023-07-28T04:09:44;98872.31;;;23.20;70.40
69780;BME280;57052;55.602;38.096;2023-07-28T04:12:10;98860.84;;;23.18;69.46
69780;BME280;57052;55.602;38.096;2023-07-28T04:14:36;98828.53;;;23.18;69.39
69780;BME280;57052;55.602;38.096;2023-07-28T04:17:02;98776.03;;;23.11;69.41
69780;BME280;57052;55.602;38.096;2023-07-28T04:19:27;98755.94;;;23.14;69.23
69780;BME280;57052;55.602;38.096;2023-07-28T04:21:54;98759.91;;;23.24;68.76
69780;BME280;57052;55.602;38.096;2023-07-28T04:24:20;98738.22;;;23.26;69.25
69780;BME280;57052;55.602;38.096;2023-07-28T04:26:46;98713.41;;;23.29;69.09
69780;BME280;57052;55.602;38.096;2023-07-28T04:29:14;98691.69;;;23.31;68.98
69780;BME280;57052;55.602;38.096;2023-07-28T04:31:40;98710.63;;;23.33;69.02
69780;BME280;57052;55.602;38.096;2023-07-28T04:34:05;98731.56;;;23.34;68.91
69780;BME280;57052;55.602;38.096;2023-07-28T04:36:31;98725.63;;;23.35;68.65
69780;BME280;57052;55.602;38.096;2023-07-28T04:38:57;98726.47;;;23.43;68.47
69780;BME280;57052;55.602;38.096;2023-07-28T04:41:22;98728.06;;;23.44;68.30
69780;BME280;57052;55.602;38.096;2023-07-28T04:43:48;98747.03;;;23.56;68.43
69780;BME280;57052;55.602;38.096;2023-07-28T04:46:13;98754.94;;;23.61;68.44
69780;BME280;57052;55.602;38.096;2023-07-28T04:48:39;98755.72;;;23.65;68.22
69780;BME280;57052;55.602;38.096;2023-07-28T04:51:05;98753.78;;;23.80;67.96
69780;BME280;57052;55.602;38.096;2023-07-28T04:53:30;98736.81;;;23.85;67.49
69780;BME280;57052;55.602;38.096;2023-07-28T04:55:56;98747.06;;;23.98;67.46
69780;BME280;57052;55.602;38.096;2023-07-28T04:58:22;98730.94;;;24.07;67.01
69780;BME280;57052;55.602;38.096;2023-07-28T05:00:47;98731.69;;;24.15;66.88
69780;BME280;57052;55.602;38.096;2023-07-28T05:03:13;98728.94;;;24.22;66.39
69780;BME280;57052;55.602;38.096;2023-07-28T05:05:38;98742.75;;;24.29;66.04
69780;BME280;57052;55.602;38.096;2023-07-28T05:08:04;98740.38;;;24.35;65.93
69780;BME280;57052;55.602;38.096;2023-07-28T05:10:30;98736.81;;;24.41;65.79
69780;BME280;57052;55.602;38.096;2023-07-28T05:12:55;98741.94;;;24.46;65.30
69780;BME280;57052;55.602;38.096;2023-07-28T05:15:21;98738.75;;;24.48;64.82
69780;BME280;57052;55.602;38.096;2023-07-28T05:17:49;98737.19;;;24.57;64.66
69780;BME280;57052;55.602;38.096;2023-07-28T05:20:14;98731.22;;;24.55;64.49
69780;BME280;57052;55.602;38.096;2023-07-28T05:22:41;98747.41;;;24.71;63.99
69780;BME280;57052;55.602;38.096;2023-07-28T05:25:07;98748.59;;;24.77;63.75
69780;BME280;57052;55.602;38.096;2023-07-28T05:27:33;98748.59;;;24.84;63.38
69780;BME280;57052;55.602;38.096;2023-07-28T05:29:58;98745.84;;;24.84;63.12
69780;BME280;57052;55.602;38.096;2023-07-28T05:32:24;98755.28;;;24.94;62.70
69780;BME280;57052;55.602;38.096;2023-07-28T05:34:50;98756.84;;;24.98;62.64
69780;BME280;57052;55.602;38.096;2023-07-28T05:37:15;98748.50;;;25.05;62.32
69780;BME280;57052;55.602;38.096;2023-07-28T05:39:41;98747.34;;;25.06;62.55
69780;BME280;57052;55.602;38.096;2023-07-28T05:42:07;98757.16;;;25.18;62.11
69780;BME280;57052;55.602;38.096;2023-07-28T05:44:34;98749.66;;;25.22;62.02
69780;BME280;57052;55.602;38.096;2023-07-28T05:46:59;98753.97;;;25.30;62.05
69780;BME280;57052;55.602;38.096;2023-07-28T05:49:25;98760.66;;;25.36;62.21
69780;BME280;57052;55.602;38.096;2023-07-28T05:51:51;98754.31;;;25.39;61.93
69780;BME280;57052;55.602;38.096;2023-07-28T05:54:16;98759.03;;;25.45;61.65
69780;BME280;57052;55.602;38.096;2023-07-28T05:56:42;98745.97;;;25.46;61.82
69780;BME280;57052;55.602;38.096;2023-07-28T05:59:08;98764.13;;;25.58;61.43
69780;BME280;57052;55.602;38.096;2023-07-28T06:01:34;98753.06;;;25.58;61.32
69780;BME280;57052;55.602;38.096;2023-07-28T06:04:00;98774.75;;;25.66;61.16
69780;BME280;57052;55.602;38.096;2023-07-28T06:06:26;98768.47;;;25.62;61.15
69780;BME280;57052;55.602;38.096;2023-07-28T06:08:53;98773.59;;;25.64;61.37
69780;BME280;57052;55.602;38.096;2023-07-28T06:11:19;98774.44;;;25.54;61.31
69780;BME280;57052;55.602;38.096;2023-07-28T06:13:44;98780.34;;;25.56;61.38
69780;BME280;57052;55.602;38.096;2023-07-28T06:16:11;98781.94;;;25.60;61.25
69780;BME280;57052;55.602;38.096;2023-07-28T06:18:37;98765.69;;;25.59;61.36
69780;BME280;57052;55.602;38.096;2023-07-28T06:21:03;98750.31;;;25.51;61.39
69780;BME280;57052;55.602;38.096;2023-07-28T06:23:29;98767.28;;;25.60;61.09
69780;BME280;57052;55.602;38.096;2023-07-28T06:25:54;98774.81;;;25.63;60.86
69780;BME280;57052;55.602;38.096;2023-07-28T06:28:20;98775.97;;;25.65;61.16
69780;BME280;57052;55.602;38.096;2023-07-28T06:30:46;98790.97;;;25.71;61.53
69780;BME280;57052;55.602;38.096;2023-07-28T06:33:12;98806.78;;;25.74;60.93
69780;BME280;57052;55.602;38.096;2023-07-28T06:35:38;98823.00;;;25.76;60.63
69780;BME280;57052;55.602;38.096;2023-07-28T06:38:04;98817.13;;;25.70;59.57
69780;BME280;57052;55.602;38.096;2023-07-28T06:40:30;98839.25;;;25.77;59.24
69780;BME280;57052;55.602;38.096;2023-07-28T06:42:56;98861.81;;;25.79;59.29
69780;BME280;57052;55.602;38.096;2023-07-28T06:45:22;98850.41;;;25.70;59.56
69780;BME280;57052;55.602;38.096;2023-07-28T06:47:47;98907.78;;;25.73;60.14
69780;BME280;57052;55.602;38.096;2023-07-28T06:50:14;98976.31;;;25.69;60.36
69780;BME280;57052;55.602;38.096;2023-07-28T06:52:40;99002.88;;;25.60;60.41
69780;BME280;57052;55.602;38.096;2023-07-28T06:55:06;98996.53;;;25.59;60.79
69780;BME280;57052;55.602;38.096;2023-07-28T06:57:31;98956.97;;;25.55;60.53
69780;BME280;57052;55.602;38.096;2023-07-28T06:59:57;98954.56;;;25.54;60.64
69780;BME280;57052;55.602;38.096;2023-07-28T07:02:23;98957.34;;;25.54;60.67
69780;BME280;57052;55.602;38.096;2023-07-28T07:04:49;98934.00;;;25.51;60.52
69780;BME280;57052;55.602;38.096;2023-07-28T07:07:14;98922.91;;;25.51;60.45
69780;BME280;57052;55.602;38.096;2023-07-28T07:09:40;98861.94;;;25.44;60.72
69780;BME280;57052;55.602;38.096;2023-07-28T07:12:08;98878.59;;;25.48;60.88
69780;BME280;57052;55.602;38.096;2023-07-28T07:14:34;98865.91;;;25.46;60.54
69780;BME280;57052;55.602;38.096;2023-07-28T07:17:00;98876.22;;;25.46;60.76
69780;BME280;57052;55.602;38.096;2023-07-28T07:19:30;98870.66;;;25.42;61.31
69780;BME280;57052;55.602;38.096;2023-07-28T07:21:56;98879.38;;;25.41;61.06
69780;BME280;57052;55.602;38.096;2023-07-28T07:24:21;98880.16;;;25.38;61.78
69780;BME280;57052;55.602;38.096;2023-07-28T07:26:47;98871.50;;;25.29;62.38
69780;BME280;57052;55.602;38.096;2023-07-28T07:29:13;98871.88;;;25.34;62.33
69780;BME280;57052;55.602;38.096;2023-07-28T07:31:39;98865.94;;;25.32;62.77
69780;BME280;57052;55.602;38.096;2023-07-28T07:34:05;98857.63;;;25.32;63.22
69780;BME280;57052;55.602;38.096;2023-07-28T07:36:31;98842.63;;;25.26;63.52
69780;BME280;57052;55.602;38.096;2023-07-28T07:38:57;98848.53;;;25.28;63.87
69780;BME280;57052;55.602;38.096;2023-07-28T07:41:23;98851.69;;;25.30;64.26
69780;BME280;57052;55.602;38.096;2023-07-28T07:43:51;98835.47;;;25.25;64.07
69780;BME280;57052;55.602;38.096;2023-07-28T07:46:18;98840.59;;;25.30;63.95
69780;BME280;57052;55.602;38.096;2023-07-28T07:48:45;98841.41;;;25.31;63.77
69780;BME280;57052;55.602;38.096;2023-07-28T07:51:12;98836.25;;;25.36;63.25
69780;BME280;57052;55.602;38.096;2023-07-28T07:53:37;98823.56;;;25.39;62.64
69780;BME280;57052;55.602;38.096;2023-07-28T07:56:04;98814.84;;;25.44;62.35
69780;BME280;57052;55.602;38.096;2023-07-28T07:58:30;98812.09;;;25.48;62.14
69780;BME280;57052;55.602;38.096;2023-07-28T08:00:56;98805.34;;;25.48;61.81
69780;BME280;57052;55.602;38.096;2023-07-28T08:03:22;98820.41;;;25.48;61.19
69780;BME280;57052;55.602;38.096;2023-07-28T08:05:50;98840.94;;;25.57;61.25
69780;BME280;57052;55.602;38.096;2023-07-28T08:08:16;98854.38;;;25.62;61.35
69780;BME280;57052;55.602;38.096;2023-07-28T08:10:43;98868.25;;;25.62;61.30
69780;BME280;57052;55.602;38.096;2023-07-28T08:13:09;98872.19;;;25.65;61.34
69780;BME280;57052;55.602;38.096;2023-07-28T08:15:35;98861.09;;;25.65;61.47
69780;BME280;57052;55.602;38.096;2023-07-28T08:18:01;98839.31;;;25.67;61.66
69780;BME280;57052;55.602;38.096;2023-07-28T08:20:26;98846.03;;;25.69;61.67
69780;BME280;57052;55.602;38.096;2023-07-28T08:22:52;98847.59;;;25.74;61.97
69780;BME280;57052;55.602;38.096;2023-07-28T08:25:18;98852.72;;;25.79;61.65
69780;BME280;57052;55.602;38.096;2023-07-28T08:27:45;98851.53;;;25.80;61.43
69780;BME280;57052;55.602;38.096;2023-07-28T08:30:11;98851.53;;;25.80;61.31
69780;BME280;57052;55.602;38.096;2023-07-28T08:32:37;98863.78;;;25.82;61.14
69780;BME280;57052;55.602;38.096;2023-07-28T08:35:03;98874.88;;;25.79;60.98
69780;BME280;57052;55.602;38.096;2023-07-28T08:37:30;98893.50;;;25.78;60.74
69780;BME280;57052;55.602;38.096;2023-07-28T08:39:55;98888.38;;;25.77;60.75
69780;BME280;57052;55.602;38.096;2023-07-28T08:42:21;98875.31;;;25.74;61.15
69780;BME280;57052;55.602;38.096;2023-07-28T08:44:48;98865.81;;;25.71;61.30
69780;BME280;57052;55.602;38.096;2023-07-28T08:47:14;98876.47;;;25.80;60.94
69780;BME280;57052;55.602;38.096;2023-07-28T08:49:40;98863.41;;;25.80;61.16
69780;BME280;57052;55.602;38.096;2023-07-28T08:52:06;98868.91;;;25.84;61.63
69780;BME280;57052;55.602;38.096;2023-07-28T08:54:31;98876.81;;;25.85;61.76
69780;BME280;57052;55.602;38.096;2023-07-28T08:56:58;98882.34;;;25.89;61.93
69780;BME280;57052;55.602;38.096;2023-07-28T08:59:25;98887.09;;;25.92;61.95
69780;BME280;57052;55.602;38.096;2023-07-28T09:01:56;98892.63;;;25.95;62.87
69780;BME280;57052;55.602;38.096;2023-07-28T09:04:23;98886.25;;;26.02;61.25
69780;BME280;57052;55.602;38.096;2023-07-28T09:06:50;98889.78;;;26.09;61.59
69780;BME280;57052;55.602;38.096;2023-07-28T09:09:20;98895.69;;;26.19;61.19
69780;BME280;57052;55.602;38.096;2023-07-28T09:11:53;98903.13;;;26.32;60.49
69780;BME280;57052;55.602;38.096;2023-07-28T09:14:20;98910.56;;;26.46;59.37
69780;BME280;57052;55.602;38.096;2023-07-28T09:16:46;98909.69;;;26.59;59.05
69780;BME280;57052;55.602;38.096;2023-07-28T09:19:13;98916.34;;;26.69;59.29
69780;BME280;57052;55.602;38.096;2023-07-28T09:21:42;98915.91;;;26.70;58.58
69780;BME280;57052;55.602;38.096;2023-07-28T09:24:10;98933.38;;;26.71;57.80
69780;BME280;57052;55.602;38.096;2023-07-28T09:29:15;98962.00;;;26.61;56.40
69780;BME280;57052;55.602;38.096;2023-07-28T09:31:42;98962.44;;;26.56;57.13
69780;BME280;57052;55.602;38.096;2023-07-28T09:34:09;98971.22;;;26.47;57.95
69780;BME280;57052;55.602;38.096;2023-07-28T09:36:36;98985.13;;;26.47;58.05
69780;BME280;57052;55.602;38.096;2023-07-28T09:39:07;99005.38;;;26.37;58.36
69780;BME280;57052;55.602;38.096;2023-07-28T09:41:37;99017.72;;;26.26;59.47
69780;BME280;57052;55.602;38.096;2023-07-28T09:44:06;99025.69;;;26.13;60.03
69780;BME280;57052;55.602;38.096;2023-07-28T09:46:35;99026.09;;;26.04;60.24
69780;BME280;57052;55.602;38.096;2023-07-28T09:49:10;99030.91;;;25.90;59.90
69780;BME280;57052;55.602;38.096;2023-07-28T09:51:40;99013.88;;;25.81;60.96
69780;BME280;57052;55.602;38.096;2023-07-28T09:54:23;98997.69;;;25.69;61.09
69780;BME280;57052;55.602;38.096;2023-07-28T09:56:55;98973.56;;;25.62;61.40
69780;BME280;57052;55.602;38.096;2023-07-28T09:59:26;98990.16;;;25.66;61.91
69780;BME280;57052;55.602;38.096;2023-07-28T10:01:53;98968.03;;;25.62;61.97
69780;BME280;57052;55.602;38.096;2023-07-28T10:04:20;98950.22;;;25.60;62.66
69780;BME280;57052;55.602;38.096;2023-07-28T10:06:46;98962.88;;;25.57;63.03
69780;BME280;57052;55.602;38.096;2023-07-28T10:09:13;98981.50;;;25.53;63.90
69780;BME280;57052;55.602;38.096;2023-07-28T10:11:42;98970.81;;;25.41;64.52
69780;BME280;57052;55.602;38.096;2023-07-28T10:14:08;98993.75;;;25.41;64.84
69780;BME280;57052;55.602;38.096;2023-07-28T10:16:39;98988.25;;;25.34;64.66
69780;BME280;57052;55.602;38.096;2023-07-28T10:19:06;98979.53;;;25.29;64.54
69780;BME280;57052;55.602;38.096;2023-07-28T10:21:39;98983.09;;;25.29;64.87
69780;BME280;57052;55.602;38.096;2023-07-28T10:24:05;98982.31;;;25.29;64.55
69780;BME280;57052;55.602;38.096;2023-07-28T10:26:34;98983.47;;;25.28;64.85
69780;BME280;57052;55.602;38.096;2023-07-28T10:29:11;98972.03;;;25.19;64.33
69780;BME280;57052;55.602;38.096;2023-07-28T10:31:52;98972.03;;;25.22;64.10
69780;BME280;57052;55.602;38.096;2023-07-28T10:34:19;98933.25;;;25.19;64.16
69780;BME280;57052;55.602;38.096;2023-07-28T10:36:45;98926.88;;;25.25;63.73
69780;BME280;57052;55.602;38.096;2023-07-28T10:39:15;98912.28;;;25.25;64.23
69780;BME280;57052;55.602;38.096;2023-07-28T10:42:09;98910.28;;;25.32;64.17
69780;BME280;57052;55.602;38.096;2023-07-28T10:44:36;98900.72;;;25.44;63.46
69780;BME280;57052;55.602;38.096;2023-07-28T10:47:02;98899.56;;;25.48;63.47
69780;BME280;57052;55.602;38.096;2023-07-28T10:49:33;98913.38;;;25.56;63.66
69780;BME280;57052;55.602;38.096;2023-07-28T10:51:59;98904.66;;;25.68;63.50
69780;BME280;57052;55.602;38.096;2023-07-28T10:54:24;98888.00;;;25.75;63.25
69780;BME280;57052;55.602;38.096;2023-07-28T10:56:50;98879.13;;;26.01;62.82
69780;BME280;57052;55.602;38.096;2023-07-28T10:59:16;98839.03;;;26.20;62.43
69780;BME280;57052;55.602;38.096;2023-07-28T11:01:42;98830.56;;;26.34;61.61
69780;BME280;57052;55.602;38.096;2023-07-28T11:04:16;98820.72;;;26.29;59.77
69780;BME280;57052;55.602;38.096;2023-07-28T11:06:44;98849.28;;;26.70;60.70
69780;BME280;57052;55.602;38.096;2023-07-28T11:09:11;98861.31;;;27.01;59.96
69780;BME280;57052;55.602;38.096;2023-07-28T11:11:38;98857.81;;;27.31;58.89
69780;BME280;57052;55.602;38.096;2023-07-28T11:14:05;98860.31;;;27.59;58.22
69780;BME280;57052;55.602;38.096;2023-07-28T11:16:38;98851.69;;;27.80;56.12
69780;BME280;57052;55.602;38.096;2023-07-28T11:19:09;98853.09;;;27.95;55.60
69780;BME280;57052;55.602;38.096;2023-07-28T11:21:40;98849.03;;;28.00;54.93
69780;BME280;57052;55.602;38.096;2023-07-28T11:24:10;98864.13;;;27.99;54.05
69780;BME280;57052;55.602;38.096;2023-07-28T11:26:39;98876.09;;;27.96;54.42
69780;BME280;57052;55.602;38.096;2023-07-28T11:29:05;98903.16;;;27.95;54.70
69780;BME280;57052;55.602;38.096;2023-07-28T11:31:32;98921.06;;;27.91;54.83
69780;BME280;57052;55.602;38.096;2023-07-28T11:33:58;98936.25;;;27.86;55.29
69780;BME280;57052;55.602;38.096;2023-07-28T11:36:28;98935.16;;;27.77;55.01
69780;BME280;57052;55.602;38.096;2023-07-28T11:38:57;98919.84;;;27.62;54.43
69780;BME280;57052;55.602;38.096;2023-07-28T11:41:23;98930.19;;;27.61;54.51
69780;BME280;57052;55.602;38.096;2023-07-28T11:43:51;98929.44;;;27.57;54.45
69780;BME280;57052;55.602;38.096;2023-07-28T11:46:36;98925.22;;;27.46;54.10
69780;BME280;57052;55.602;38.096;2023-07-28T11:49:14;98933.56;;;27.46;54.60
69780;BME280;57052;55.602;38.096;2023-07-28T11:51:43;98935.16;;;27.43;54.86
69780;BME280;57052;55.602;38.096;2023-07-28T11:54:14;98948.31;;;27.39;55.18
69780;BME280;57052;55.602;38.096;2023-07-28T11:56:44;98935.31;;;27.25;55.30
69780;BME280;57052;55.602;38.096;2023-07-28T11:59:11;98945.16;;;27.33;55.48
69780;BME280;57052;55.602;38.096;2023-07-28T12:01:58;98945.22;;;27.26;54.53
69780;BME280;57052;55.602;38.096;2023-07-28T12:04:28;98963.84;;;27.33;54.75
69780;BME280;57052;55.602;38.096;2023-07-28T12:12:18;98985.00;;;27.16;55.05
69780;BME280;57052;55.602;38.096;2023-07-28T12:14:44;98996.59;;;27.08;55.65
69780;BME280;57052;55.602;38.096;2023-07-28T12:17:17;99001.06;;;26.95;55.50
69780;BME280;57052;55.602;38.096;2023-07-28T12:20:04;99017.38;;;26.86;56.88
69780;BME280;57052;55.602;38.096;2023-07-28T12:22:44;99015.81;;;26.85;56.95
69780;BME280;57052;55.602;38.096;2023-07-28T12:25:11;99021.41;;;26.81;56.55
69780;BME280;57052;55.602;38.096;2023-07-28T12:27:37;99034.59;;;26.63;56.92
69780;BME280;57052;55.602;38.096;2023-07-28T12:30:03;99036.56;;;26.59;57.27
69780;BME280;57052;55.602;38.096;2023-07-28T12:32:32;99036.63;;;26.48;57.61
69780;BME280;57052;55.602;38.096;2023-07-28T12:34:58;99041.84;;;26.43;58.47
69780;BME280;57052;55.602;38.096;2023-07-28T12:37:23;99038.31;;;26.35;58.74
69780;BME280;57052;55.602;38.096;2023-07-28T12:39:49;99025.28;;;26.25;59.21
69780;BME280;57052;55.602;38.096;2023-07-28T12:42:15;99022.91;;;26.20;59.00
69780;BME280;57052;55.602;38.096;2023-07-28T12:44:42;99026.50;;;26.10;59.39
69780;BME280;57052;55.602;38.096;2023-07-28T12:47:08;99035.63;;;26.00;59.95
69780;BME280;57052;55.602;38.096;2023-07-28T12:49:34;99044.34;;;25.98;60.57
69780;BME280;57052;55.602;38.096;2023-07-28T12:52:02;99050.31;;;25.90;61.23
69780;BME280;57052;55.602;38.096;2023-07-28T12:54:29;99055.47;;;25.81;62.00
69780;BME280;57052;55.602;38.096;2023-07-28T12:56:55;99063.03;;;25.70;62.77
69780;BME280;57052;55.602;38.096;2023-07-28T12:59:21;99069.41;;;25.60;63.35
69780;BME280;57052;55.602;38.096;2023-07-28T13:01:47;99072.97;;;25.50;64.16